Time;durP1;ratioP1;P1;durP2;ratioP2;P2;SDS_P1;SDS_P2;PMS_P1;PMS_P2;Temp;Humidity;BMP_temperature;BMP_pressure;BME280_temperature;BME280_humidity;BME280_pressure;Samples;Min_cycle;Max_cycle;Signal;HPM_P1;HPM_P2
2022/03/29 00:01:29;;;;;;;10.20;6.80;;;;;;;-139.48;100.00;61774.03;5021398;28;20044;-69
2022/03/29 00:04:15;;;;;;;10.55;6.72;;;;;;;-139.48;100.00;61774.03;5020857;28;20555;-70
2022/03/29 00:06:59;;;;;;;10.50;6.82;;;;;;;-139.48;100.00;61774.03;5007123;28;20044;-69
2022/03/29 00:09:43;;;;;;;12.32;8.35;;;;;;;-139.48;100.00;61774.03;5020781;28;20064;-69
2022/03/29 00:12:27;;;;;;;13.10;8.35;;;;;;;-139.48;100.00;61774.03;5020931;28;20111;-69
2022/03/29 00:15:12;;;;;;;14.70;8.95;;;;;;;-139.48;100.00;61774.03;5035732;28;20125;-69
2022/03/29 00:17:55;;;;;;;;;;;;;;;-139.48;100.00;61774.03;5021397;28;20045;-70
2022/03/29 00:20:40;;;;;;;14.73;8.52;;;;;;;-139.48;100.00;61774.03;5035624;28;20384;-70
2022/03/29 00:23:23;;;;;;;12.73;8.10;;;;;;;-139.48;100.00;61774.03;5020959;28;20099;-70
2022/03/29 00:26:07;;;;;;;14.55;7.43;;;;;;;-139.48;100.00;61774.03;5034783;28;20542;-70
2022/03/29 00:28:52;;;;;;;14.10;9.52;;;;;;;-139.48;100.00;61774.03;5020514;28;20044;-69
2022/03/29 00:31:36;;;;;;;15.90;8.80;;;;;;;-139.48;100.00;61774.03;5020676;28;20456;-70
2022/03/29 00:34:20;;;;;;;16.23;8.45;;;;;;;-139.48;100.00;61774.03;5020385;28;20056;-70
2022/03/29 00:37:04;;;;;;;11.30;8.13;;;;;;;-139.48;100.00;61774.03;5006732;28;20451;-70
2022/03/29 00:39:48;;;;;;;15.00;8.80;;;;;;;-139.48;100.00;61774.03;5035253;28;20424;-69
2022/03/29 00:42:34;;;;;;;11.20;8.32;;;;;;;-139.48;100.00;61774.03;5035397;28;20470;-69
2022/03/29 00:45:18;;;;;;;13.23;8.43;;;;;;;-139.48;100.00;61774.03;5020913;28;20060;-70
2022/03/29 00:48:02;;;;;;;14.15;7.70;;;;;;;-139.48;100.00;61774.03;5035040;28;20052;-69
2022/03/29 00:50:47;;;;;;;13.57;7.55;;;;;;;-139.48;100.00;61774.03;5020062;28;20052;-70
2022/03/29 00:53:31;;;;;;;14.13;7.88;;;;;;;-139.48;100.00;61774.03;5006251;28;20048;-70
2022/03/29 00:56:19;;;;;;;13.18;7.80;;;;;;;-139.48;100.00;61774.03;5035446;28;20427;-69
2022/03/29 00:59:03;;;;;;;10.80;7.25;;;;;;;-139.48;100.00;61774.03;5020490;28;20048;-69
2022/03/29 01:01:48;;;;;;;15.13;7.68;;;;;;;-139.48;100.00;61774.03;5034763;28;20056;-70
2022/03/29 01:04:32;;;;;;;11.63;7.80;;;;;;;-139.48;100.00;61774.03;5035302;28;20459;-69
2022/03/29 01:07:16;;;;;;;10.90;7.20;;;;;;;-139.48;100.00;61774.03;5006130;28;20099;-70
2022/03/29 01:10:01;;;;;;;13.45;8.10;;;;;;;-139.48;100.00;61774.03;5034661;28;20476;-69
2022/03/29 01:12:46;;;;;;;15.75;8.25;;;;;;;-139.48;100.00;61774.03;5019619;28;20055;-69
2022/03/29 01:15:32;;;;;;;11.48;8.48;;;;;;;-139.48;100.00;61774.03;5006177;28;20099;-69
2022/03/29 01:18:18;;;;;;;11.88;7.32;;;;;;;-139.48;100.00;61774.03;5019802;28;20083;-69
2022/03/29 01:21:04;;;;;;;16.83;8.20;;;;;;;-139.48;100.00;61774.03;5019552;28;20056;-69
2022/03/29 01:23:48;;;;;;;12.45;7.55;;;;;;;-139.48;100.00;61774.03;5005847;28;20051;-70
2022/03/29 01:26:33;;;;;;;12.75;7.70;;;;;;;-139.48;100.00;61774.03;5019756;28;20094;-70
2022/03/29 01:29:17;;;;;;;16.13;8.63;;;;;;;-139.48;100.00;61774.03;5019737;28;20048;-69
2022/03/29 01:32:04;;;;;;;13.68;9.00;;;;;;;-139.48;100.00;61774.03;5019407;28;20060;-69
2022/03/29 01:34:48;;;;;;;17.88;8.98;;;;;;;-139.48;100.00;61774.03;5019580;28;20052;-70
2022/03/29 01:37:34;;;;;;;19.50;8.18;;;;;;;-139.48;100.00;61774.03;5018797;28;20052;-70
2022/03/29 01:40:20;;;;;;;13.18;8.63;;;;;;;-139.48;100.00;61774.03;5034075;28;20471;-70
2022/03/29 01:43:04;;;;;;;14.70;8.43;;;;;;;-139.48;100.00;61774.03;5019075;28;20412;-69
2022/03/29 01:45:48;;;;;;;13.88;7.65;;;;;;;-139.48;100.00;61774.03;5034014;28;20064;-69
2022/03/29 01:48:32;;;;;;;12.93;7.90;;;;;;;-139.48;100.00;61774.03;5033894;28;20107;-70
2022/03/29 01:51:16;;;;;;;12.70;8.05;;;;;;;-139.48;100.00;61774.03;5034175;28;20143;-69
2022/03/29 01:54:02;;;;;;;11.88;7.80;;;;;;;-139.48;100.00;61774.03;5019065;28;20568;-69
2022/03/29 01:56:46;;;;;;;12.55;8.52;;;;;;;-139.48;100.00;61774.03;5005135;28;20064;-70
2022/03/29 02:00:30;;;;;;;12.43;8.13;;;;;;;-139.48;100.00;61774.03;5033816;28;20063;-70
2022/03/29 02:02:34;;;;;;;13.25;9.07;;;;;;;-139.48;100.00;61774.03;5033887;28;20064;-69
2022/03/29 02:05:20;;;;;;;12.98;8.10;;;;;;;-139.48;100.00;61774.03;5033956;28;20048;-69
2022/03/29 02:08:03;;;;;;;13.07;8.80;;;;;;;-139.48;100.00;61774.03;5033884;28;20099;-69
2022/03/29 02:10:47;;;;;;;17.70;8.75;;;;;;;-139.48;100.00;61774.03;5033905;28;20095;-69
2022/03/29 02:13:31;;;;;;;13.82;9.63;;;;;;;-139.48;100.00;61774.03;5033449;28;20052;-70
2022/03/29 02:16:15;;;;;;;15.27;7.88;;;;;;;-139.48;100.00;61774.03;5018807;28;20103;-69
2022/03/29 02:18:59;;;;;;;13.00;8.15;;;;;;;-139.48;100.00;61774.03;5018783;28;20052;-69
2022/03/29 02:21:43;;;;;;;14.20;8.55;;;;;;;-139.48;100.00;61774.03;5033457;28;20416;-69
2022/03/29 02:24:27;;;;;;;12.40;8.50;;;;;;;-139.48;100.00;61774.03;5004789;28;20171;-70
2022/03/29 02:27:11;;;;;;;14.80;8.50;;;;;;;-139.48;100.00;61774.03;5033570;28;20103;-70
2022/03/29 02:29:55;;;;;;;11.55;7.68;;;;;;;-139.48;100.00;61774.03;5033319;28;20048;-69
2022/03/29 02:32:39;;;;;;;21.42;8.07;;;;;;;-139.48;100.00;61774.03;5018271;28;20048;-70
2022/03/29 02:35:23;;;;;;;14.57;8.35;;;;;;;-139.48;100.00;61774.03;5033258;28;20484;-69
2022/03/29 02:38:07;;;;;;;14.90;8.55;;;;;;;-139.48;100.00;61774.03;5018710;28;20047;-70
2022/03/29 02:40:51;;;;;;;16.00;8.95;;;;;;;-139.48;100.00;61774.03;5033235;28;20051;-70
2022/03/29 02:43:35;;;;;;;17.05;9.35;;;;;;;-139.48;100.00;61774.03;5004234;28;20107;-69
2022/03/29 02:46:19;;;;;;;11.68;8.23;;;;;;;-139.48;100.00;61774.03;5033451;28;20044;-70
2022/03/29 02:49:03;;;;;;;11.77;8.57;;;;;;;-139.48;100.00;61774.03;5036186;28;20165;-69
2022/03/29 02:51:47;;;;;;;17.20;8.98;;;;;;;-139.48;100.00;61774.03;5037167;28;20133;-69
2022/03/29 02:54:31;;;;;;;15.02;8.57;;;;;;;-139.48;100.00;61774.03;5022888;28;20052;-69
2022/03/29 02:57:15;;;;;;;13.82;8.35;;;;;;;-139.48;100.00;61774.03;5022686;28;20044;-69
2022/03/29 02:59:59;;;;;;;20.42;9.77;;;;;;;-139.48;100.00;61774.03;5037398;28;20045;-69
2022/03/29 03:02:47;;;;;;;19.08;10.25;;;;;;;-139.48;100.00;61774.03;5022302;28;20048;-69
2022/03/29 03:05:32;;;;;;;14.55;8.98;;;;;;;-139.48;100.00;61774.03;5022328;28;20084;-69
2022/03/29 03:08:16;;;;;;;12.65;8.50;;;;;;;-139.48;100.00;61774.03;5021997;28;20100;-70
2022/03/29 03:10:59;;;;;;;15.27;8.90;;;;;;;-139.48;100.00;61774.03;5022014;28;20409;-69
2022/03/29 03:13:43;;;;;;;17.10;8.73;;;;;;;-139.48;100.00;61774.03;5022926;28;20103;-71
2022/03/29 03:16:27;;;;;;;15.10;9.23;;;;;;;-139.48;100.00;61774.03;5037102;28;20049;-71
2022/03/29 03:19:12;;;;;;;17.83;9.95;;;;;;;-139.48;100.00;61774.03;5021853;28;20099;-71
2022/03/29 03:21:56;;;;;;;20.80;10.07;;;;;;;-139.48;100.00;61774.03;5022122;28;20049;-71
2022/03/29 03:24:40;;;;;;;15.82;10.40;;;;;;;-139.48;100.00;61774.03;5021991;28;20052;-71
2022/03/29 03:27:24;;;;;;;15.75;8.73;;;;;;;-139.48;100.00;61774.03;5021485;28;20095;-71
2022/03/29 03:30:16;;;;;;;12.93;9.05;;;;;;;-139.48;100.00;61774.03;5036590;28;20512;-71
2022/03/29 03:33:00;;;;;;;11.70;8.27;;;;;;;-139.48;100.00;61774.03;5021603;28;20099;-71
2022/03/29 03:35:44;;;;;;;16.67;9.32;;;;;;;-139.48;100.00;61774.03;5021592;28;20472;-71
2022/03/29 03:38:27;;;;;;;17.63;9.60;;;;;;;-139.48;100.00;61774.03;5036684;28;20048;-71
2022/03/29 03:41:11;;;;;;;15.68;8.63;;;;;;;-139.48;100.00;61774.03;5021707;28;20056;-72
2022/03/29 03:43:55;;;;;;;17.08;10.55;;;;;;;-139.48;100.00;61774.03;5021305;28;20056;-71
2022/03/29 03:46:39;;;;;;;18.23;9.57;;;;;;;-139.48;100.00;61774.03;5036175;28;20057;-70
2022/03/29 03:49:23;;;;;;;15.07;9.73;;;;;;;-139.48;100.00;61774.03;5036491;28;20587;-71
2022/03/29 03:52:08;;;;;;;17.42;9.05;;;;;;;-139.48;100.00;61774.03;5021947;28;20099;-71
2022/03/29 03:54:52;;;;;;;16.52;9.57;;;;;;;-139.48;100.00;61774.03;5036076;28;20048;-71
2022/03/29 03:57:36;;;;;;;19.60;9.18;;;;;;;-139.48;100.00;61774.03;5035997;28;20103;-71
2022/03/29 04:00:21;;;;;;;15.18;8.77;;;;;;;-139.48;100.00;61774.03;5007190;28;20055;-71
2022/03/29 04:03:05;;;;;;;16.75;9.07;;;;;;;-139.48;100.00;61774.03;5021230;28;20060;-72
2022/03/29 04:05:48;;;;;;;13.98;9.68;;;;;;;-139.48;100.00;61774.03;5036209;28;20056;-71
2022/03/29 04:08:33;;;;;;;15.80;9.88;;;;;;;-139.48;100.00;61774.03;5036048;28;20057;-71
2022/03/29 04:11:16;;;;;;;18.85;9.48;;;;;;;-139.48;100.00;61774.03;5007247;28;20048;-71
2022/03/29 04:14:00;;;;;;;14.43;9.18;;;;;;;-139.48;100.00;61774.03;5021040;28;20546;-71
2022/03/29 04:16:44;;;;;;;19.45;9.05;;;;;;;-139.48;100.00;61774.03;5035718;28;20091;-71
2022/03/29 04:19:28;;;;;;;19.70;9.70;;;;;;;-139.48;100.00;61774.03;5035899;28;20115;-71
2022/03/29 04:22:12;;;;;;;17.40;8.98;;;;;;;-139.48;100.00;61774.03;5035522;28;20195;-71
2022/03/29 04:24:56;;;;;;;15.98;8.60;;;;;;;-139.48;100.00;61774.03;5020547;28;20052;-71
2022/03/29 04:27:40;;;;;;;27.60;9.30;;;;;;;-139.48;100.00;61774.03;5020449;28;20048;-71
2022/03/29 04:30:24;;;;;;;15.43;9.40;;;;;;;-139.48;100.00;61774.03;5020763;28;20465;-71
2022/03/29 04:33:08;;;;;;;15.20;8.98;;;;;;;-139.48;100.00;61774.03;5020622;28;20044;-71
2022/03/29 04:35:52;;;;;;;14.85;9.68;;;;;;;-139.48;100.00;61774.03;5035629;28;20401;-71
2022/03/29 04:38:36;;;;;;;15.45;8.77;;;;;;;-139.48;100.00;61774.03;5020441;28;20052;-71
2022/03/29 04:41:21;;;;;;;17.80;9.30;;;;;;;-139.48;100.00;61774.03;5020250;28;20095;-71
2022/03/29 04:44:05;;;;;;;17.38;10.73;;;;;;;-139.48;100.00;61774.03;5020478;28;20097;-71
2022/03/29 04:46:49;;;;;;;16.38;10.00;;;;;;;-139.48;100.00;61774.03;5020341;28;20056;-71
2022/03/29 04:49:34;;;;;;;17.15;10.38;;;;;;;-139.48;100.00;61774.03;5006505;28;20052;-70
2022/03/29 04:52:18;;;;;;;19.08;10.32;;;;;;;-139.48;100.00;61774.03;5034970;28;20110;-71
2022/03/29 04:55:03;;;;;;;18.38;8.55;;;;;;;-139.48;100.00;61774.03;5006137;28;20056;-71
2022/03/29 04:57:48;;;;;;;14.00;8.95;;;;;;;-139.48;100.00;61774.03;5020272;28;20087;-71
2022/03/29 05:00:32;;;;;;;18.92;9.15;;;;;;;-139.48;100.00;61774.03;5020137;28;20516;-71
2022/03/29 05:03:16;;;;;;;16.02;9.50;;;;;;;-139.48;100.00;61774.03;5019831;28;20045;-71
2022/03/29 05:06:00;;;;;;;15.95;9.80;;;;;;;-139.48;100.00;61774.03;5034711;28;20048;-71
2022/03/29 05:08:44;;;;;;;17.70;9.82;;;;;;;-139.48;100.00;61774.03;5034680;28;20044;-71
2022/03/29 05:11:28;;;;;;;15.40;9.30;;;;;;;-139.48;100.00;61774.03;5033750;28;20116;-70
2022/03/29 05:14:12;;;;;;;17.52;9.85;;;;;;;-139.48;100.00;61774.03;5034886;28;20470;-71
2022/03/29 05:16:57;;;;;;;18.40;9.80;;;;;;;-139.48;100.00;61774.03;5034506;28;20553;-71
2022/03/29 05:19:41;;;;;;;19.67;9.52;;;;;;;-139.48;100.00;61774.03;5034465;28;20099;-71
2022/03/29 05:22:25;;;;;;;14.57;9.40;;;;;;;-139.48;100.00;61774.03;5019560;28;20052;-71
2022/03/29 05:25:09;;;;;;;28.75;10.98;;;;;;;-139.48;100.00;61774.03;5034368;28;20099;-71
2022/03/29 05:27:54;;;;;;;18.38;10.25;;;;;;;-139.48;100.00;61774.03;5019307;28;20056;-71
2022/03/29 05:30:38;;;;;;;18.08;10.05;;;;;;;-139.48;100.00;61774.03;5019229;28;20413;-71
2022/03/29 05:33:22;;;;;;;18.08;8.55;;;;;;;-139.48;100.00;61774.03;5034216;28;20053;-70
2022/03/29 05:36:06;;;;;;;20.73;10.30;;;;;;;-139.48;100.00;61774.03;5034521;28;20079;-70
2022/03/29 05:38:51;;;;;;;20.75;10.30;;;;;;;-139.48;100.00;61774.03;5019129;28;20048;-71
2022/03/29 05:41:35;;;;;;;16.48;9.80;;;;;;;-139.48;100.00;61774.03;5034481;28;20144;-71
2022/03/29 05:44:19;;;;;;;19.73;9.85;;;;;;;-139.48;100.00;61774.03;5034207;28;20106;-71
2022/03/29 05:50:08;;;;;;;20.77;10.27;;;;;;;-139.48;100.00;61774.03;5021900;28;20095;-71
2022/03/29 05:52:52;;;;;;;16.73;10.10;;;;;;;-139.48;100.00;61774.03;5019253;28;20088;-71
2022/03/29 05:55:36;;;;;;;16.90;11.00;;;;;;;-139.48;100.00;61774.03;5034171;28;20064;-71
2022/03/29 05:58:20;;;;;;;23.08;12.38;;;;;;;-139.48;100.00;61774.03;5033875;28;20581;-71
2022/03/29 06:01:04;;;;;;;23.92;11.43;;;;;;;-139.48;100.00;61774.03;5019048;28;20048;-71
2022/03/29 06:03:49;;;;;;;19.27;10.30;;;;;;;-139.48;100.00;61774.03;5034275;28;20052;-71
2022/03/29 06:06:34;;;;;;;18.90;10.00;;;;;;;-139.48;100.00;61774.03;5033923;28;20154;-71
2022/03/29 06:09:18;;;;;;;14.25;9.95;;;;;;;-139.48;100.00;61774.03;5018972;28;20089;-71
2022/03/29 06:12:03;;;;;;;21.83;11.00;;;;;;;-139.48;100.00;61774.03;5033507;28;20095;-71
2022/03/29 06:14:48;;;;;;;19.95;9.88;;;;;;;-139.48;100.00;61774.03;5018675;28;20191;-71
2022/03/29 06:17:32;;;;;;;22.95;10.95;;;;;;;-139.48;100.00;61774.03;5018949;28;20044;-71
2022/03/29 06:20:16;;;;;;;16.38;10.57;;;;;;;-139.48;100.00;61774.03;5018745;28;20079;-71
2022/03/29 06:23:00;;;;;;;17.83;10.43;;;;;;;-139.48;100.00;61774.03;5004726;28;20068;-71
2022/03/29 06:25:43;;;;;;;18.75;10.98;;;;;;;-139.48;100.00;61774.03;5033644;28;20052;-71
2022/03/29 06:28:27;;;;;;;20.38;10.60;;;;;;;-139.48;100.00;61774.03;5018391;28;20072;-71
2022/03/29 06:31:11;;;;;;;23.20;11.63;;;;;;;-139.48;100.00;61774.03;5033556;28;20164;-71
2022/03/29 06:33:56;;;;;;;16.25;10.05;;;;;;;-139.48;100.00;61774.03;5018571;28;20052;-69
2022/03/29 06:36:41;;;;;;;18.00;10.63;;;;;;;-139.48;100.00;61774.03;5018455;28;20076;-71
2022/03/29 06:39:26;;;;;;;16.15;10.10;;;;;;;-139.48;100.00;61774.03;5018315;28;20048;-70
2022/03/29 06:42:10;;;;;;;17.55;10.63;;;;;;;-139.48;100.00;61774.03;5004714;28;20055;-71
2022/03/29 06:44:54;;;;;;;17.23;11.00;;;;;;;-139.48;100.00;61774.03;5033298;28;20171;-70
2022/03/29 06:47:39;;;;;;;19.10;11.27;;;;;;;-139.48;100.00;61774.03;5018368;28;20052;-71
2022/03/29 06:50:23;;;;;;;19.85;11.63;;;;;;;-139.48;100.00;61774.03;5033070;28;20107;-71
2022/03/29 06:53:07;;;;;;;17.08;11.82;;;;;;;-139.48;100.00;61774.03;5017976;28;20420;-70
2022/03/29 06:55:51;;;;;;;18.48;11.73;;;;;;;-139.48;100.00;61774.03;5018364;28;20413;-71
2022/03/29 06:58:36;;;;;;;17.45;11.27;;;;;;;-139.48;100.00;61774.03;5018704;28;20104;-71
2022/03/29 07:01:21;;;;;;;21.60;11.93;;;;;;;-139.48;100.00;61774.03;5018203;28;20100;-71
2022/03/29 07:04:07;;;;;;;21.73;12.32;;;;;;;-139.48;100.00;61774.03;5033206;28;20056;-70
2022/03/29 07:06:51;;;;;;;24.02;13.10;;;;;;;-139.48;100.00;61774.03;5018469;28;20056;-71
2022/03/29 07:12:52;;;;;;;22.35;11.85;;;;;;;-139.48;100.00;61774.03;5020438;28;20129;-71
2022/03/29 07:15:36;;;;;;;18.52;10.55;;;;;;;-139.48;100.00;61774.03;5033120;28;20052;-70
2022/03/29 07:18:20;;;;;;;17.27;10.77;;;;;;;-139.48;100.00;61774.03;5018126;28;20400;-70
2022/03/29 07:21:04;;;;;;;20.88;11.90;;;;;;;-139.48;100.00;61774.03;5003927;28;20155;-71
2022/03/29 07:23:48;;;;;;;18.90;11.23;;;;;;;-139.48;100.00;61774.03;5032726;28;20052;-71
2022/03/29 07:26:32;;;;;;;22.10;11.25;;;;;;;-139.48;100.00;61774.03;5018227;28;20053;-71
2022/03/29 07:29:17;;;;;;;19.05;11.35;;;;;;;-139.48;100.00;61774.03;5032702;28;20092;-71
2022/03/29 07:32:01;;;;;;;21.65;12.15;;;;;;;-139.48;100.00;61774.03;5018324;28;20095;-71
2022/03/29 07:34:46;;;;;;;16.73;11.82;;;;;;;-139.48;100.00;61774.03;5019672;28;20052;-71
2022/03/29 07:37:29;;;;;;;19.45;12.00;;;;;;;-139.48;100.00;61774.03;5021669;28;20103;-71
2022/03/29 07:40:16;;;;;;;22.02;12.38;;;;;;;-139.48;100.00;61774.03;5021644;28;20102;-71
2022/03/29 07:43:00;;;;;;;19.95;11.98;;;;;;;-139.48;100.00;61774.03;5036245;28;20048;-71
2022/03/29 07:45:44;;;;;;;22.15;11.95;;;;;;;-139.48;100.00;61774.03;5021269;28;20071;-71
2022/03/29 07:48:28;;;;;;;19.45;13.13;;;;;;;-139.48;100.00;61774.03;5021181;28;20103;-71
2022/03/29 07:51:12;;;;;;;19.42;12.00;;;;;;;-139.48;100.00;61774.03;5007377;28;20048;-70
2022/03/29 07:53:56;;;;;;;19.35;11.10;;;;;;;-139.48;100.00;61774.03;5036334;28;20099;-71
2022/03/29 07:56:40;;;;;;;18.45;11.52;;;;;;;-139.48;100.00;61774.03;5021534;28;20053;-71
2022/03/29 07:59:24;;;;;;;26.48;12.25;;;;;;;-139.48;100.00;61774.03;5021266;28;20067;-71
2022/03/29 08:02:09;;;;;;;20.90;11.73;;;;;;;-139.48;100.00;61774.03;5035911;28;20527;-71
2022/03/29 08:04:52;;;;;;;23.33;12.32;;;;;;;-139.48;100.00;61774.03;5036046;28;20079;-71
2022/03/29 08:07:37;;;;;;;23.83;11.73;;;;;;;-139.48;100.00;61774.03;5035796;28;20103;-71
2022/03/29 08:10:21;;;;;;;19.98;11.65;;;;;;;-139.48;100.00;61774.03;5021066;28;20084;-71
2022/03/29 08:13:10;;;;;;;24.27;12.70;;;;;;;-139.48;100.00;61774.03;5020580;28;20075;-71
2022/03/29 08:15:55;;;;;;;21.63;12.70;;;;;;;-139.48;100.00;61774.03;5036235;28;20051;-71
2022/03/29 08:18:39;;;;;;;20.20;12.35;;;;;;;-139.48;100.00;61774.03;5035649;28;20052;-71
2022/03/29 08:24:26;;;;;;;24.80;12.60;;;;;;;-139.48;100.00;61774.03;5035445;28;20048;-71
2022/03/29 08:27:10;;;;;;;24.85;13.32;;;;;;;-139.48;100.00;61774.03;5035451;28;20512;-71
2022/03/29 08:29:54;;;;;;;22.67;13.57;;;;;;;-139.48;100.00;61774.03;5020491;28;20107;-71
2022/03/29 08:32:39;;;;;;;19.48;12.50;;;;;;;-139.48;100.00;61774.03;5020359;28;20130;-71
2022/03/29 08:35:24;;;;;;;28.08;14.55;;;;;;;-139.48;100.00;61774.03;5006887;28;20554;-71
2022/03/29 08:38:09;;;;;;;22.52;13.13;;;;;;;-139.48;100.00;61774.03;5020575;28;20080;-71
2022/03/29 08:40:57;;;;;;;27.35;14.77;;;;;;;-139.48;100.00;61774.03;5020362;28;20100;-72
2022/03/29 08:43:42;;;;;;;27.13;14.88;;;;;;;-139.48;100.00;61774.03;5020142;28;20057;-71
2022/03/29 08:46:32;;;;;;;22.27;14.45;;;;;;;-139.48;100.00;61774.03;5019318;28;20433;-71
2022/03/29 08:49:17;;;;;;;36.83;18.50;;;;;;;-139.48;100.00;61774.03;5020651;28;20048;-71
2022/03/29 08:52:01;;;;;;;33.95;19.25;;;;;;;-139.48;100.00;61774.03;5020159;28;20455;-71
2022/03/29 08:54:45;;;;;;;33.38;18.50;;;;;;;-139.48;100.00;61774.03;5035177;28;20060;-71
2022/03/29 08:57:30;;;;;;;30.73;18.48;;;;;;;-139.48;100.00;61774.03;5020355;28;20103;-70
2022/03/29 09:00:15;;;;;;;31.15;18.08;;;;;;;-139.48;100.00;61774.03;5035064;28;20053;-71
2022/03/29 09:02:59;;;;;;;37.20;21.00;;;;;;;-139.48;100.00;61774.03;5034712;28;20130;-71
2022/03/29 09:05:44;;;;;;;38.05;19.58;;;;;;;-139.48;100.00;61774.03;5034623;28;20520;-71
2022/03/29 09:08:44;;;;;;;42.10;20.60;;;;;;;-139.48;100.00;61774.03;5019669;28;20156;-71
2022/03/29 09:11:39;;;;;;;30.95;19.00;;;;;;;-139.48;100.00;61774.03;5005868;28;20092;-71
2022/03/29 09:14:28;;;;;;;31.35;18.90;;;;;;;-139.48;100.00;61774.03;5021136;28;20053;-71
2022/03/29 09:17:32;;;;;;;34.58;19.95;;;;;;;-139.48;100.00;61774.03;5020123;28;20056;-72
2022/03/29 09:20:21;;;;;;;36.80;20.88;;;;;;;-139.48;100.00;61774.03;5034749;28;20416;-71
2022/03/29 09:23:12;;;;;;;37.05;21.50;;;;;;;-139.48;100.00;61774.03;5019723;28;20044;-71
2022/03/29 09:25:56;;;;;;;38.22;21.40;;;;;;;-139.48;100.00;61774.03;5005585;28;20060;-71
2022/03/29 09:28:40;;;;;;;37.35;21.58;;;;;;;-139.48;100.00;61774.03;5019226;28;20140;-71
2022/03/29 09:31:26;;;;;;;40.45;24.05;;;;;;;-139.48;100.00;61774.03;5034548;28;20063;-71
2022/03/29 09:34:17;;;;;;;37.90;22.25;;;;;;;-139.48;100.00;61774.03;5019781;28;20052;-70
2022/03/29 09:37:03;;;;;;;38.60;23.40;;;;;;;-139.48;100.00;61774.03;5034161;28;20067;-71
2022/03/29 09:39:49;;;;;;;40.92;23.42;;;;;;;-139.48;100.00;61774.03;5034093;28;20080;-72
2022/03/29 09:42:34;;;;;;;37.17;21.33;;;;;;;-139.48;100.00;61774.03;5034434;28;20056;-71
2022/03/29 09:45:37;;;;;;;39.70;21.27;;;;;;;-139.48;100.00;61774.03;5019489;28;20052;-72
2022/03/29 09:48:24;;;;;;;40.78;23.00;;;;;;;-139.48;100.00;61774.03;5019008;28;20052;-72
2022/03/29 09:51:07;;;;;;;37.25;21.85;;;;;;;-139.48;100.00;61774.03;5019235;28;20071;-71
2022/03/29 09:53:53;;;;;;;45.50;22.63;;;;;;;-139.48;100.00;61774.03;5033903;28;20048;-70
2022/03/29 09:56:38;;;;;;;42.10;23.15;;;;;;;-139.48;100.00;61774.03;5019127;28;20052;-71
2022/03/29 09:59:22;;;;;;;36.78;22.45;;;;;;;-139.48;100.00;61774.03;5019336;28;20090;-71
2022/03/29 10:02:06;;;;;;;39.22;21.40;;;;;;;-139.48;100.00;61774.03;5018686;28;20115;-71
2022/03/29 10:04:50;;;;;;;37.78;22.63;;;;;;;-139.48;100.00;61774.03;5018987;28;20071;-71
2022/03/29 10:07:44;;;;;;;46.25;23.30;;;;;;;-139.48;100.00;61774.03;5034023;28;20044;-71
2022/03/29 10:10:27;;;;;;;38.13;21.57;;;;;;;-139.48;100.00;61774.03;5019031;28;20068;-72
2022/03/29 10:13:12;;;;;;;37.63;23.20;;;;;;;-139.48;100.00;61774.03;5004629;28;20044;-71
2022/03/29 10:15:57;;;;;;;45.13;24.15;;;;;;;-139.48;100.00;61774.03;5018549;28;20076;-71
2022/03/29 10:18:44;;;;;;;38.45;23.23;;;;;;;-139.48;100.00;61774.03;5018671;28;20167;-71
2022/03/29 10:21:28;;;;;;;37.63;22.25;;;;;;;-139.48;100.00;61774.03;5018396;28;20136;-71
2022/03/29 10:24:13;;;;;;;36.60;22.85;;;;;;;-139.48;100.00;61774.03;5018682;28;20102;-71
2022/03/29 10:27:00;;;;;;;41.28;23.20;;;;;;;-139.48;100.00;61774.03;5018481;28;20052;-72
2022/03/29 10:29:44;;;;;;;43.53;25.90;;;;;;;-139.48;100.00;61774.03;5018721;28;20098;-72
2022/03/29 10:32:31;;;;;;;38.88;22.40;;;;;;;-139.48;100.00;61774.03;5033227;28;20052;-72
2022/03/29 10:35:15;;;;;;;37.50;23.42;;;;;;;-139.48;100.00;61774.03;5018412;28;20056;-71
2022/03/29 10:37:59;;;;;;;47.83;25.15;;;;;;;-139.48;100.00;61774.03;5033256;28;20044;-72
2022/03/29 10:40:43;;;;;;;;;;;;;;;-139.48;100.00;61774.03;5018862;28;20099;-72
2022/03/29 10:43:30;;;;;;;43.13;25.02;;;;;;;-139.48;100.00;61774.03;5004312;28;20016;-72
2022/03/29 10:46:37;;;;;;;45.55;25.30;;;;;;;-139.48;100.00;61774.03;5004687;28;20421;-72
2022/03/29 10:49:28;;;;;;;40.08;24.65;;;;;;;-139.48;100.00;61774.03;5032954;28;20057;-72
2022/03/29 10:52:28;;;;;;;38.45;22.83;;;;;;;-139.48;100.00;61774.03;5018595;28;20044;-72
2022/03/29 10:55:22;;;;;;;41.13;25.02;;;;;;;-139.48;100.00;61774.03;5018216;28;20091;-72
2022/03/29 10:58:10;;;;;;;38.80;24.23;;;;;;;-139.48;100.00;61774.03;5018393;28;20563;-72
2022/03/29 11:01:12;;;;;;;49.75;26.83;;;;;;;-139.48;100.00;61774.03;5033214;28;20131;-72
2022/03/29 11:04:30;;;;;;;42.08;24.40;;;;;;;-139.48;100.00;61774.03;5018074;28;20051;-72
2022/03/29 11:07:14;;;;;;;43.55;24.42;;;;;;;-139.48;100.00;61774.03;5017519;28;20056;-72
2022/03/29 11:10:09;;;;;;;42.70;25.17;;;;;;;-139.48;100.00;61774.03;5020526;28;20504;-72
2022/03/29 11:12:53;;;;;;;43.80;24.70;;;;;;;-139.48;100.00;61774.03;5022216;28;20095;-71
2022/03/29 11:15:38;;;;;;;43.20;24.60;;;;;;;-139.48;100.00;61774.03;5021944;28;20138;-71
2022/03/29 11:18:31;;;;;;;45.60;25.60;;;;;;;-139.48;100.00;61774.03;5022047;28;20049;-72
2022/03/29 11:21:33;;;;;;;39.72;24.17;;;;;;;-139.48;100.00;61774.03;5036899;28;20417;-72
2022/03/29 11:24:20;;;;;;;39.88;24.30;;;;;;;-139.48;100.00;61774.03;5007925;28;20524;-71
2022/03/29 11:27:04;;;;;;;48.10;24.65;;;;;;;-139.48;100.00;61774.03;5022061;28;20040;-72
2022/03/29 11:29:48;;;;;;;;;;;;;;;-139.48;100.00;61774.03;5008024;28;20052;-72
2022/03/29 11:32:36;;;;;;;;;;;;;;;-139.48;100.00;61774.03;5037125;28;19919;-72
2022/03/29 11:35:22;;;;;;;40.30;23.48;;;;;;;-139.48;100.00;61774.03;5021763;28;20028;-72
2022/03/29 11:38:15;;;;;;;41.15;23.60;;;;;;;-139.48;100.00;61774.03;5036688;28;20080;-72
2022/03/29 11:41:00;;;;;;;38.88;23.27;;;;;;;-139.48;100.00;61774.03;5021533;28;20107;-72
2022/03/29 11:43:50;;;;;;;41.70;22.92;;;;;;;-139.48;100.00;61774.03;5036183;28;20179;-72
2022/03/29 11:46:49;;;;;;;36.22;22.73;;;;;;;-139.48;100.00;61774.03;5021271;28;20100;-72
2022/03/29 11:49:39;;;;;;;48.97;24.75;;;;;;;-139.48;100.00;61774.03;5036601;28;20049;-72
2022/03/29 11:52:32;;;;;;;37.85;24.05;;;;;;;-139.48;100.00;61774.03;5021083;28;20063;-72
2022/03/29 11:55:16;;;;;;;39.25;24.70;;;;;;;-139.48;100.00;61774.03;5035952;28;20103;-72
2022/03/29 11:58:00;;;;;;;40.15;23.48;;;;;;;-139.48;100.00;61774.03;5036253;28;20130;-72
2022/03/29 12:00:43;;;;;;;;;;;;;;;-139.48;100.00;61774.03;5021634;28;20083;-72
2022/03/29 12:03:33;;;;;;;35.25;21.80;;;;;;;-139.48;100.00;61774.03;5035683;28;19924;-72
2022/03/29 12:06:20;;;;;;;39.13;23.15;;;;;;;-139.48;100.00;61774.03;5021117;28;20091;-71
2022/03/29 12:09:07;;;;;;;40.25;22.85;;;;;;;-139.48;100.00;61774.03;5020733;28;20106;-71
2022/03/29 12:11:56;;;;;;;32.95;20.33;;;;;;;-139.48;100.00;61774.03;5021034;28;20051;-72
2022/03/29 12:14:40;;;;;;;37.85;22.30;;;;;;;-139.48;100.00;61774.03;5020772;28;20465;-72
2022/03/29 12:17:24;;;;;;;37.00;23.13;;;;;;;-139.48;100.00;61774.03;5035979;28;20128;-72
2022/03/29 12:20:08;;;;;;;33.92;22.23;;;;;;;-139.48;100.00;61774.03;5006655;28;20413;-72
2022/03/29 12:22:52;;;;;;;37.63;23.05;;;;;;;-139.48;100.00;61774.03;5035751;28;20404;-72
2022/03/29 12:25:36;;;;;;;;;;;;;;;-139.48;100.00;61774.03;5036054;28;20083;-72
2022/03/29 12:28:21;;;;;;;32.13;20.88;;;;;;;-139.48;100.00;61774.03;5006510;28;20297;-72
2022/03/29 12:31:12;;;;;;;35.42;21.33;;;;;;;-139.48;100.00;61774.03;5020771;28;20107;-72